createdAt,value
2019-03-24T00:00:17.476Z,44.27
2019-03-24T00:02:46.869Z,42.63
2019-03-24T00:05:16.171Z,43.83
2019-03-24T00:07:45.589Z,42.30
2019-03-24T00:10:15.255Z,42.03
2019-03-24T00:12:44.550Z,43.10
2019-03-24T00:15:25.463Z,42.37
2019-03-24T00:17:45.559Z,42.07
2019-03-24T00:20:15.820Z,43.93
2019-03-24T00:22:45.136Z,41.77
2019-03-24T00:25:14.449Z,42.57
2019-03-24T00:27:44.167Z,42.10
2019-03-24T00:30:14.620Z,41.93
2019-03-24T00:32:44.593Z,43.67
2019-03-24T00:35:14.026Z,43.37
2019-03-24T00:37:43.811Z,43.03
2019-03-24T00:40:14.041Z,42.30
2019-03-24T00:42:43.597Z,41.77
2019-03-24T00:45:14.554Z,42.57
2019-03-24T00:47:44.279Z,43.57
2019-03-24T00:50:14.122Z,43.10
2019-03-24T00:52:43.600Z,44.67
2019-03-24T00:55:13.865Z,42.73
2019-03-24T00:57:43.161Z,43.83
2019-03-24T01:00:13.501Z,43.50
2019-03-24T01:02:43.099Z,45.50
2019-03-24T01:05:12.663Z,42.17
2019-03-24T01:07:41.978Z,42.33
2019-03-24T01:10:12.456Z,42.40
2019-03-24T01:12:41.927Z,40.37
2019-03-24T01:15:11.865Z,41.83
2019-03-24T01:17:41.180Z,39.97
2019-03-24T01:20:10.824Z,42.43
2019-03-24T01:22:40.139Z,41.03
2019-03-24T01:25:09.521Z,41.50
2019-03-24T01:27:39.043Z,41.93
2019-03-24T01:30:09.695Z,41.67
2019-03-24T01:32:39.216Z,42.63
2019-03-24T01:35:08.529Z,42.70
2019-03-24T01:37:37.846Z,39.53
2019-03-24T01:40:07.680Z,41.13
2019-03-24T01:42:37.157Z,41.07
2019-03-24T01:45:09.543Z,40.27
2019-03-24T01:47:39.301Z,44.33
2019-03-24T01:50:09.688Z,41.10
2019-03-24T01:52:38.998Z,40.93
2019-03-24T01:55:09.206Z,39.30
2019-03-24T01:57:38.833Z,39.63
2019-03-24T02:00:09.536Z,41.40
2019-03-24T02:02:38.986Z,42.30
2019-03-24T02:05:08.630Z,42.70
2019-03-24T02:07:37.940Z,40.60
2019-03-24T02:10:08.472Z,40.13
2019-03-24T02:12:37.784Z,41.20
2019-03-24T02:15:11.015Z,40.97
2019-03-24T02:17:40.316Z,41.97
2019-03-24T02:20:10.641Z,41.20
2019-03-24T02:22:39.962Z,41.60
2019-03-24T02:25:10.072Z,41.27
2019-03-24T02:27:39.396Z,42.93
2019-03-24T02:30:10.014Z,40.07
2019-03-24T02:32:39.393Z,40.20
2019-03-24T02:35:09.031Z,40.00
2019-03-24T02:37:38.351Z,41.03
2019-03-24T02:40:08.692Z,39.90
2019-03-24T02:42:38.210Z,39.63
2019-03-24T02:45:08.551Z,39.67
2019-03-24T02:47:37.939Z,39.60
2019-03-24T02:50:08.182Z,39.60
2019-03-24T02:52:37.557Z,41.20
2019-03-24T02:55:08.206Z,43.43
2019-03-24T02:57:37.594Z,41.30
2019-03-24T03:00:08.998Z,42.53
2019-03-24T03:02:38.376Z,41.77
2019-03-24T03:05:09.314Z,44.23
2019-03-24T03:07:38.637Z,45.07
2019-03-24T03:10:09.062Z,44.23
2019-03-24T03:12:38.519Z,42.97
2019-03-24T03:15:09.580Z,44.30
2019-03-24T03:17:39.112Z,45.20
2019-03-24T03:20:09.749Z,45.27
2019-03-24T03:22:39.127Z,44.13
2019-03-24T03:25:08.904Z,44.93
2019-03-24T03:27:38.328Z,43.23
2019-03-24T03:30:09.265Z,43.83
2019-03-24T03:32:38.653Z,44.27
2019-03-24T03:35:10.074Z,43.90
2019-03-24T03:37:39.485Z,44.83
2019-03-24T03:40:09.705Z,42.83
2019-03-24T03:42:40.255Z,42.67
2019-03-24T03:45:11.554Z,43.90
2019-03-24T03:47:41.025Z,45.07
2019-03-24T03:50:10.802Z,44.03
2019-03-24T03:52:40.213Z,45.23
2019-03-24T03:55:10.087Z,46.37
2019-03-24T03:57:39.452Z,43.83
2019-03-24T04:00:10.514Z,44.27
2019-03-24T04:02:39.845Z,44.90
2019-03-24T04:05:09.688Z,43.87
2019-03-24T04:07:39.015Z,43.77
2019-03-24T04:10:09.131Z,43.70
2019-03-24T04:12:38.433Z,39.70
2019-03-24T04:15:08.772Z,39.80
2019-03-24T04:17:38.090Z,39.73
2019-03-24T04:20:08.366Z,39.23
2019-03-24T04:22:38.146Z,39.67
2019-03-24T04:25:08.003Z,39.83
2019-03-24T04:27:37.293Z,41.73
2019-03-24T04:30:08.692Z,41.03
2019-03-24T04:32:38.123Z,40.60
2019-03-24T04:35:08.494Z,40.17
2019-03-24T04:37:37.854Z,40.63
2019-03-24T04:40:08.108Z,39.57
2019-03-24T04:42:37.396Z,39.33
2019-03-24T04:45:08.552Z,40.87
2019-03-24T04:47:37.851Z,43.13
2019-03-24T04:50:08.805Z,42.10
2019-03-24T04:52:38.090Z,46.50
2019-03-24T04:55:08.356Z,43.07
2019-03-24T04:57:37.823Z,45.13
2019-03-24T05:00:08.858Z,45.10
2019-03-24T05:02:38.515Z,43.83
2019-03-24T05:05:08.471Z,42.33
2019-03-24T05:07:38.812Z,41.20
2019-03-24T05:10:11.178Z,42.77
2019-03-24T05:12:40.479Z,43.17
2019-03-24T05:15:10.253Z,41.00
2019-03-24T05:17:39.544Z,46.77
2019-03-24T05:20:09.407Z,43.63
2019-03-24T05:22:38.724Z,43.67
2019-03-24T05:25:08.162Z,44.47
2019-03-24T05:27:37.476Z,41.83
2019-03-24T05:30:10.484Z,43.47
2019-03-24T05:32:39.927Z,42.63
2019-03-24T05:35:09.671Z,41.47
2019-03-24T05:37:38.992Z,41.67
2019-03-24T05:40:08.365Z,42.43
2019-03-24T05:42:37.678Z,41.03
2019-03-24T05:45:09.288Z,39.87
2019-03-24T05:47:38.587Z,41.40
2019-03-24T05:50:08.808Z,41.83
2019-03-24T05:52:38.128Z,40.63
2019-03-24T05:55:08.492Z,42.53
2019-03-24T05:57:37.823Z,42.03
2019-03-24T06:00:09.171Z,40.87
2019-03-24T06:02:38.568Z,41.90
2019-03-24T06:05:08.416Z,41.23
2019-03-24T06:07:37.753Z,42.07
2019-03-24T06:10:08.222Z,42.43
2019-03-24T06:12:37.542Z,42.20
2019-03-24T06:15:09.146Z,41.63
2019-03-24T06:17:47.399Z,42.33
2019-03-24T06:20:10.767Z,42.93
2019-03-24T06:22:40.183Z,40.47
2019-03-24T06:25:10.005Z,42.73
2019-03-24T06:27:39.488Z,43.63
2019-03-24T06:30:09.805Z,41.90
2019-03-24T06:32:39.102Z,43.07
2019-03-24T06:35:09.437Z,43.77
2019-03-24T06:37:38.760Z,43.60
2019-03-24T06:40:09.101Z,42.63
2019-03-24T06:42:38.493Z,43.00
2019-03-24T06:45:08.458Z,43.07
2019-03-24T06:47:38.048Z,43.13
2019-03-24T06:50:07.892Z,43.23
2019-03-24T06:52:37.288Z,63.40
2019-03-24T06:55:06.951Z,43.70
2019-03-24T06:57:36.258Z,44.43
2019-03-24T07:00:08.384Z,43.73
2019-03-24T07:02:37.775Z,44.83
2019-03-24T07:05:07.809Z,43.83
2019-03-24T07:07:37.122Z,42.83
2019-03-24T07:10:09.064Z,44.60
2019-03-24T07:12:38.460Z,45.13
2019-03-24T07:15:08.530Z,42.80
2019-03-24T07:17:37.922Z,43.17
2019-03-24T07:20:07.970Z,44.60
2019-03-24T07:22:37.248Z,44.37
2019-03-24T07:25:07.376Z,43.70
2019-03-24T07:27:36.670Z,43.80
2019-03-24T07:30:09.377Z,45.27
2019-03-24T07:32:38.709Z,44.40
2019-03-24T07:35:08.061Z,44.07
2019-03-24T07:37:37.417Z,43.63
2019-03-24T07:40:08.875Z,44.03
2019-03-24T07:42:38.273Z,45.00
2019-03-24T07:45:09.149Z,45.40
2019-03-24T07:47:38.447Z,44.00
2019-03-24T07:50:09.401Z,41.00
2019-03-24T07:52:38.795Z,42.30
2019-03-24T07:55:09.352Z,43.07
2019-03-24T07:57:38.645Z,41.63
2019-03-24T08:00:10.203Z,44.07
2019-03-24T08:02:51.098Z,44.57
2019-03-24T08:05:18.365Z,44.17
2019-03-24T08:07:47.820Z,46.03
2019-03-24T08:10:17.483Z,44.83
2019-03-24T08:12:46.972Z,46.20
2019-03-24T08:15:16.601Z,44.90
2019-03-24T08:17:45.946Z,44.10
2019-03-24T08:20:15.248Z,46.00
2019-03-24T08:22:44.562Z,46.37
2019-03-24T08:25:13.948Z,47.03
2019-03-24T08:27:43.254Z,45.27
2019-03-24T08:30:12.931Z,44.57
2019-03-24T08:32:43.319Z,44.17
2019-03-24T08:35:12.999Z,45.17
2019-03-24T08:37:42.291Z,44.13
2019-03-24T08:40:11.941Z,41.50
2019-03-24T08:42:41.266Z,41.20
2019-03-24T08:45:13.614Z,41.50
2019-03-24T08:47:42.938Z,40.53
2019-03-24T08:50:12.310Z,40.03
2019-03-24T08:52:41.697Z,41.30
2019-03-24T08:55:11.364Z,40.13
2019-03-24T08:57:40.679Z,38.47
2019-03-24T09:00:10.043Z,38.37
2019-03-24T09:02:39.549Z,37.13
2019-03-24T09:05:08.989Z,34.10
2019-03-24T09:07:38.302Z,36.70
2019-03-24T09:10:08.625Z,34.23
2019-03-24T09:12:38.040Z,32.13
2019-03-24T09:15:08.283Z,31.93
2019-03-24T09:17:37.669Z,31.97
2019-03-24T09:20:07.940Z,32.47
2019-03-24T09:22:37.301Z,33.47
2019-03-24T09:25:07.978Z,32.57
2019-03-24T09:27:37.278Z,32.80
2019-03-24T09:30:18.049Z,32.40
2019-03-24T09:32:47.354Z,34.67
2019-03-24T09:35:16.662Z,35.17
2019-03-24T09:37:46.351Z,34.63
2019-03-24T09:40:18.895Z,34.23
2019-03-24T09:42:48.137Z,35.47
2019-03-24T09:45:17.456Z,39.27
2019-03-24T09:47:46.759Z,38.10
2019-03-24T09:50:16.099Z,39.03
2019-03-24T09:52:45.605Z,37.53
2019-03-24T09:55:14.936Z,34.80
2019-03-24T09:57:44.232Z,36.13
2019-03-24T10:00:13.689Z,37.17
2019-03-24T10:02:42.994Z,37.00
2019-03-24T10:05:13.148Z,39.50
2019-03-24T10:07:42.481Z,36.30
2019-03-24T10:10:12.229Z,36.17
2019-03-24T10:12:41.641Z,36.97
2019-03-24T10:15:11.522Z,36.03
2019-03-24T10:17:40.813Z,35.73
2019-03-24T10:20:10.767Z,35.93
2019-03-24T10:22:40.135Z,36.93
2019-03-24T10:25:09.523Z,36.47
2019-03-24T10:27:38.837Z,36.73
2019-03-24T10:30:09.198Z,37.17
2019-03-24T10:32:38.561Z,39.43
2019-03-24T10:35:08.415Z,42.87
2019-03-24T10:37:37.917Z,40.10
2019-03-24T10:40:07.862Z,38.60
2019-03-24T10:42:38.316Z,39.03
2019-03-24T10:45:08.248Z,38.07
2019-03-24T10:47:37.968Z,37.53
2019-03-24T10:50:09.293Z,36.97
2019-03-24T10:52:39.051Z,33.97
2019-03-24T10:55:10.803Z,31.90
2019-03-24T10:57:40.777Z,32.60
2019-03-24T11:00:40.196Z,32.13
2019-03-24T11:03:10.064Z,30.37
2019-03-24T11:05:39.437Z,28.10
2019-03-24T11:08:09.091Z,28.07
2019-03-24T11:10:38.398Z,29.07
2019-03-24T11:13:07.921Z,28.40
2019-03-24T11:15:37.220Z,26.93
2019-03-24T11:18:06.897Z,25.63
2019-03-24T11:20:36.196Z,24.07
2019-03-24T11:23:05.778Z,24.23
2019-03-24T11:25:35.626Z,25.23
2019-03-24T11:28:04.923Z,24.00
2019-03-24T11:30:34.551Z,24.43
2019-03-24T11:33:04.164Z,23.80
2019-03-24T11:35:33.976Z,23.73
2019-03-24T11:38:03.343Z,20.53
2019-03-24T11:40:32.727Z,21.33
2019-03-24T11:43:02.359Z,21.57
2019-03-24T11:45:31.771Z,20.40
2019-03-24T11:48:01.241Z,18.90
2019-03-24T11:50:30.566Z,18.70
2019-03-24T11:52:59.887Z,18.10
2019-03-24T11:55:29.214Z,19.07
2019-03-24T11:58:05.767Z,19.27
2019-03-24T12:00:37.807Z,17.07
2019-03-24T12:03:07.946Z,17.60
2019-03-24T12:05:37.597Z,24.97
2019-03-24T12:08:07.168Z,17.63
2019-03-24T12:10:37.121Z,16.73
2019-03-24T12:13:06.434Z,17.70
2019-03-24T12:15:36.077Z,16.63
2019-03-24T12:18:05.555Z,18.00
2019-03-24T12:20:34.940Z,17.40
2019-03-24T12:23:04.222Z,17.80
2019-03-24T12:25:33.535Z,18.53
2019-03-24T12:28:02.908Z,17.30
2019-03-24T12:30:32.301Z,17.17
2019-03-24T12:33:02.185Z,16.70
2019-03-24T12:35:31.644Z,16.73
2019-03-24T12:38:01.155Z,18.17
2019-03-24T12:40:30.549Z,15.60
2019-03-24T12:42:59.946Z,14.23
2019-03-24T12:45:29.288Z,15.13
2019-03-24T12:47:58.608Z,12.80
2019-03-24T12:50:31.784Z,13.00
2019-03-24T12:52:59.303Z,13.67
2019-03-24T12:55:28.877Z,11.97
2019-03-24T12:57:58.394Z,11.90
2019-03-24T13:00:34.263Z,11.70
2019-03-24T13:03:03.919Z,11.97
2019-03-24T13:05:33.316Z,12.27
2019-03-24T13:08:11.168Z,11.97
2019-03-24T13:10:42.003Z,11.27
2019-03-24T13:13:12.361Z,11.70
2019-03-24T13:15:42.254Z,12.33
2019-03-24T13:18:11.547Z,11.67
2019-03-24T13:20:41.150Z,12.13
2019-03-24T13:23:10.450Z,11.33
2019-03-24T13:25:39.855Z,10.47
2019-03-24T13:28:09.312Z,9.73
2019-03-24T13:30:38.751Z,9.27
2019-03-24T13:33:08.243Z,11.10
2019-03-24T13:35:37.641Z,13.73
2019-03-24T13:38:07.000Z,15.57
2019-03-24T13:40:36.292Z,14.87
2019-03-24T13:43:05.866Z,13.00
2019-03-24T13:45:35.370Z,10.17
2019-03-24T13:48:04.882Z,9.90
2019-03-24T13:50:34.238Z,10.87
2019-03-24T13:53:03.657Z,8.80
2019-03-24T13:55:33.256Z,9.83
2019-03-24T13:58:02.901Z,8.50
2019-03-24T14:00:32.324Z,9.13
2019-03-24T14:03:01.955Z,8.50
2019-03-24T14:05:31.332Z,7.47
2019-03-24T14:08:00.806Z,7.37
2019-03-24T14:10:30.240Z,6.90
2019-03-24T14:12:59.624Z,8.30
2019-03-24T14:15:28.999Z,9.13
2019-03-24T14:17:58.561Z,8.43
2019-03-24T14:20:28.054Z,7.97
2019-03-24T14:22:57.417Z,8.70
2019-03-24T14:25:26.781Z,7.77
2019-03-24T14:27:56.051Z,7.53
2019-03-24T14:30:42.782Z,6.80
2019-03-24T14:33:12.296Z,6.27
2019-03-24T14:35:42.305Z,6.33
2019-03-24T14:38:11.668Z,5.50
2019-03-24T14:40:41.453Z,5.90
2019-03-24T14:43:10.751Z,5.60
2019-03-24T14:45:40.063Z,5.80
2019-03-24T14:48:09.354Z,5.53
2019-03-24T14:50:38.962Z,5.87
2019-03-24T14:53:11.268Z,5.23
2019-03-24T14:55:40.688Z,5.97
2019-03-24T14:58:10.002Z,5.27
2019-03-24T15:00:41.360Z,5.00
2019-03-24T15:03:11.533Z,5.47
2019-03-24T15:05:40.842Z,5.03
2019-03-24T15:08:11.088Z,5.10
2019-03-24T15:10:40.465Z,4.70
2019-03-24T15:13:10.028Z,4.30
2019-03-24T15:15:39.378Z,5.03
2019-03-24T15:18:08.773Z,4.50
2019-03-24T15:20:38.531Z,5.10
2019-03-24T15:23:08.066Z,6.03
2019-03-24T15:25:37.555Z,4.57
2019-03-24T15:28:06.995Z,4.70
2019-03-24T15:30:36.491Z,4.20
2019-03-24T15:33:05.787Z,4.40
2019-03-24T15:35:35.284Z,4.27
2019-03-24T15:38:08.413Z,7.80
2019-03-24T15:40:35.769Z,4.97
2019-03-24T15:43:05.067Z,4.60
2019-03-24T15:45:34.368Z,4.10
2019-03-24T15:48:03.994Z,4.17
2019-03-24T15:50:33.374Z,4.17
2019-03-24T15:53:02.649Z,4.10
2019-03-24T15:55:32.021Z,3.63
2019-03-24T15:58:01.421Z,4.20
2019-03-24T16:00:42.162Z,3.93
2019-03-24T16:03:12.974Z,3.50
2019-03-24T16:05:42.331Z,6.77
2019-03-24T16:08:11.686Z,4.90
2019-03-24T16:10:41.235Z,4.10
2019-03-24T16:13:10.565Z,4.00
2019-03-24T16:15:40.241Z,3.70
2019-03-24T16:18:09.669Z,3.73
2019-03-24T16:20:39.324Z,4.10
2019-03-24T16:23:08.636Z,5.00
2019-03-24T16:25:37.924Z,3.93
2019-03-24T16:28:07.502Z,3.27
2019-03-24T16:30:37.007Z,3.50
2019-03-24T16:33:06.511Z,3.20
2019-03-24T16:35:36.044Z,2.90
2019-03-24T16:38:05.504Z,2.73
2019-03-24T16:40:34.905Z,2.90
2019-03-24T16:43:04.346Z,2.90
2019-03-24T16:45:34.698Z,2.30
2019-03-24T16:48:04.468Z,2.87
2019-03-24T16:50:33.959Z,2.67
2019-03-24T16:53:03.438Z,3.00
2019-03-24T16:55:32.888Z,2.30
2019-03-24T16:58:02.196Z,2.33
2019-03-24T17:00:31.905Z,2.30
2019-03-24T17:03:01.691Z,4.13
2019-03-24T17:05:31.014Z,2.73
2019-03-24T17:08:00.800Z,2.70
2019-03-24T17:10:30.210Z,3.00
2019-03-24T17:12:59.601Z,2.87
2019-03-24T17:15:29.473Z,2.73
2019-03-24T17:17:59.043Z,2.60
2019-03-24T17:20:29.025Z,2.77
2019-03-24T17:22:58.344Z,3.00
2019-03-24T17:25:27.618Z,2.53
2019-03-24T17:27:57.068Z,2.97
2019-03-24T17:30:26.523Z,3.13
2019-03-24T17:32:55.853Z,2.97
2019-03-24T17:35:25.215Z,3.13
2019-03-24T17:37:54.745Z,3.43
2019-03-24T17:40:24.345Z,3.30
2019-03-24T17:42:53.719Z,3.23
2019-03-24T17:45:22.994Z,2.80
2019-03-24T17:47:52.390Z,3.20
2019-03-24T17:50:22.083Z,3.07
2019-03-24T17:52:51.584Z,3.53
2019-03-24T17:55:27.514Z,3.97
2019-03-24T17:57:52.211Z,5.87
2019-03-24T18:00:36.115Z,4.30
2019-03-24T18:03:06.177Z,4.37
2019-03-24T18:05:35.765Z,4.13
2019-03-24T18:08:05.597Z,3.93
2019-03-24T18:10:35.315Z,4.13
2019-03-24T18:13:05.340Z,7.93
2019-03-24T18:15:34.644Z,10.73
2019-03-24T18:18:04.024Z,4.10
2019-03-24T18:20:36.032Z,4.40
2019-03-24T18:23:05.796Z,3.33
2019-03-24T18:25:35.159Z,4.13
2019-03-24T18:28:04.813Z,3.60
2019-03-24T18:30:34.358Z,3.87
2019-03-24T18:33:03.801Z,3.70
2019-03-24T18:35:33.421Z,3.83
2019-03-24T18:38:02.790Z,3.93
2019-03-24T18:40:32.116Z,3.80
2019-03-24T18:43:01.432Z,3.97
2019-03-24T18:45:30.704Z,3.00
2019-03-24T18:48:00.305Z,3.30
2019-03-24T18:50:29.928Z,3.20
2019-03-24T18:52:59.345Z,3.80
2019-03-24T18:55:28.667Z,3.23
2019-03-24T19:04:21.882Z,4.20
2019-03-24T19:07:17.840Z,4.43
2019-03-24T19:09:47.110Z,4.50
2019-03-24T19:12:16.427Z,7.57
2019-03-24T19:14:45.869Z,11.77
2019-03-24T19:17:15.251Z,5.90
2019-03-24T19:19:44.784Z,6.07
2019-03-24T19:22:14.289Z,6.27
2019-03-24T19:24:43.616Z,6.77
2019-03-24T19:27:12.906Z,5.63
2019-03-24T19:29:42.205Z,5.37
2019-03-24T19:32:11.875Z,5.93
2019-03-24T19:34:41.202Z,6.10
2019-03-24T19:37:11.186Z,6.63
2019-03-24T19:39:40.756Z,6.20
2019-03-24T19:42:10.529Z,5.60
2019-03-24T19:44:40.052Z,5.50
2019-03-24T19:47:09.350Z,5.60
2019-03-24T19:49:39.027Z,8.37
2019-03-24T19:52:08.421Z,7.20
2019-03-24T19:54:38.056Z,6.00
2019-03-24T19:57:07.424Z,5.77
2019-03-24T19:59:36.721Z,5.50
2019-03-24T20:02:06.081Z,5.43
2019-03-24T20:04:35.422Z,5.60
2019-03-24T20:07:04.861Z,5.57
2019-03-24T20:09:34.342Z,5.93
2019-03-24T20:12:03.772Z,6.40
2019-03-24T20:14:33.222Z,5.57
2019-03-24T20:17:02.772Z,6.83
2019-03-24T20:19:32.251Z,5.73
2019-03-24T20:22:01.545Z,5.80
2019-03-24T20:24:30.874Z,6.13
2019-03-24T20:27:00.202Z,5.77
2019-03-24T20:29:29.694Z,6.50
2019-03-24T20:31:59.203Z,6.93
2019-03-24T20:34:28.503Z,6.20
2019-03-24T20:36:57.832Z,6.47
2019-03-24T20:39:27.162Z,7.17
2019-03-24T20:41:56.473Z,5.17
2019-03-24T20:44:25.757Z,5.07
2019-03-24T20:46:55.071Z,4.03
2019-03-24T20:49:24.387Z,5.03
2019-03-24T20:51:53.853Z,5.50
2019-03-24T20:54:23.279Z,4.83
2019-03-24T20:56:52.588Z,4.83
2019-03-24T20:59:22.015Z,4.70
2019-03-24T21:01:51.479Z,4.53
2019-03-24T21:04:20.809Z,4.97
2019-03-24T21:06:50.112Z,4.30
2019-03-24T21:09:19.515Z,4.60
2019-03-24T21:11:48.816Z,5.30
2019-03-24T21:14:18.441Z,5.37
2019-03-24T21:16:47.744Z,4.50
2019-03-24T21:19:17.199Z,4.57
2019-03-24T21:21:46.579Z,5.00
2019-03-24T21:24:15.878Z,4.63
2019-03-24T21:26:45.389Z,4.63
2019-03-24T21:29:14.666Z,5.03
2019-03-24T21:31:44.014Z,4.67
2019-03-24T21:34:13.319Z,4.43
2019-03-24T21:36:42.619Z,4.50
2019-03-24T21:39:11.950Z,4.93
2019-03-24T21:41:41.238Z,4.27
2019-03-24T21:44:10.563Z,4.53
2019-03-24T21:46:39.859Z,4.80
2019-03-24T21:49:09.525Z,5.30
2019-03-24T21:51:38.807Z,5.13
2019-03-24T21:54:08.188Z,5.30
2019-03-24T21:56:37.472Z,5.37
2019-03-24T21:59:06.794Z,4.83
2019-03-24T22:01:36.251Z,5.30
2019-03-24T22:04:05.515Z,4.63
2019-03-24T22:06:34.958Z,4.53
2019-03-24T22:09:06.687Z,4.50
2019-03-24T22:11:35.986Z,4.77
2019-03-24T22:14:05.720Z,4.87
2019-03-24T22:16:35.030Z,4.57
2019-03-24T22:19:04.644Z,3.93
2019-03-24T22:21:33.951Z,5.40
2019-03-24T22:24:03.258Z,5.23
2019-03-24T22:26:32.541Z,5.07
2019-03-24T22:29:01.931Z,5.27
2019-03-24T22:31:31.405Z,5.03
2019-03-24T22:34:00.706Z,5.20
2019-03-24T22:36:30.076Z,5.10
2019-03-24T22:38:59.458Z,5.33
2019-03-24T22:41:28.742Z,5.37
2019-03-24T22:43:58.052Z,4.97
2019-03-24T22:46:27.460Z,5.50
2019-03-24T22:48:56.848Z,4.37
2019-03-24T22:51:26.444Z,4.93
2019-03-24T22:54:03.204Z,5.37
2019-03-24T22:56:27.151Z,5.87
2019-03-24T22:58:56.527Z,5.20
2019-03-24T23:01:26.463Z,5.10
2019-03-24T23:03:55.829Z,5.60
2019-03-24T23:06:28.370Z,4.40
2019-03-24T23:08:58.982Z,4.93
2019-03-24T23:11:29.442Z,4.50
2019-03-24T23:14:01.343Z,5.07
2019-03-24T23:16:32.885Z,4.50
2019-03-24T23:19:03.839Z,4.73
2019-03-24T23:21:35.012Z,5.70
2019-03-24T23:24:14.848Z,4.90
2019-03-24T23:26:38.476Z,4.60
2019-03-24T23:29:09.617Z,4.87
2019-03-24T23:31:39.065Z,5.10
2019-03-24T23:34:08.375Z,5.83
2019-03-24T23:36:37.684Z,5.57
2019-03-24T23:39:08.317Z,5.00
2019-03-24T23:41:37.736Z,5.60
2019-03-24T23:44:07.112Z,5.43
2019-03-24T23:46:36.433Z,5.67
2019-03-24T23:49:08.030Z,6.00
2019-03-24T23:51:39.100Z,5.97
2019-03-24T23:54:10.441Z,6.47
2019-03-24T23:56:40.803Z,5.30
2019-03-24T23:59:11.893Z,5.30
